Time;durP1;ratioP1;P1;durP2;ratioP2;P2;SDS_P1;SDS_P2;PMS_P1;PMS_P2;Temp;Humidity;BMP_temperature;BMP_pressure;BME280_temperature;BME280_humidity;BME280_pressure;Samples;Min_cycle;Max_cycle;Signal;HPM_P1;HPM_P2
2023/07/04 00:02:19;;;;;;;20.83;10.83;;;;;;;;;;6248111;28;20044;-84
2023/07/04 00:05:20;;;;;;;18.60;11.53;;;;;;;;;;6238084;28;20050;-81
2023/07/04 00:08:21;;;;;;;20.25;12.10;;;;;;;;;;6238332;28;20018;-81
2023/07/04 00:11:21;;;;;;;19.43;11.63;;;;;;;;;;6219648;28;20481;-76
2023/07/04 00:14:21;;;;;;;23.47;10.97;;;;;;;;;;6251145;28;20036;-81
2023/07/04 00:17:21;;;;;;;20.75;10.80;;;;;;;;;;6239696;28;20080;-81
2023/07/04 00:20:22;;;;;;;19.57;10.93;;;;;;;;;;6247699;28;20041;-82
2023/07/04 00:23:23;;;;;;;19.88;10.82;;;;;;;;;;6249639;28;20047;-83
2023/07/04 00:26:24;;;;;;;24.00;11.85;;;;;;;;;;6236462;28;20040;-84
2023/07/04 00:29:24;;;;;;;24.63;12.37;;;;;;;;;;6249811;28;20026;-84
2023/07/04 00:32:25;;;;;;;18.85;10.98;;;;;;;;;;6250080;28;20022;-85
2023/07/04 00:35:25;;;;;;;21.13;11.87;;;;;;;;;;6248855;28;20025;-84
2023/07/04 00:38:26;;;;;;;23.83;11.40;;;;;;;;;;6239617;28;20040;-83
2023/07/04 00:41:28;;;;;;;19.50;10.93;;;;;;;;;;6243138;28;20040;-83
2023/07/04 00:44:30;;;;;;;19.85;10.98;;;;;;;;;;6220974;28;20034;-83
2023/07/04 00:47:43;;;;;;;22.73;11.90;;;;;;;;;;6236562;28;20122;-84
2023/07/04 00:50:45;;;;;;;21.92;12.38;;;;;;;;;;6218670;28;20137;-82
2023/07/04 00:53:49;;;;;;;19.77;11.45;;;;;;;;;;6237119;28;20021;-82
2023/07/04 00:56:51;;;;;;;25.52;12.98;;;;;;;;;;6225970;28;20025;-83
2023/07/04 00:59:57;;;;;;;25.95;12.43;;;;;;;;;;6232082;28;20018;-81
2023/07/04 01:03:10;;;;;;;23.80;12.25;;;;;;;;;;6217846;28;20033;-81
2023/07/04 01:06:28;;;;;;;21.75;11.02;;;;;;;;;;6216771;28;20045;-84
2023/07/04 01:09:31;;;;;;;24.40;12.88;;;;;;;;;;6218476;28;20029;-82
2023/07/04 01:12:31;;;;;;;24.50;13.23;;;;;;;;;;6203596;28;20462;-83
2023/07/04 01:15:32;;;;;;;25.93;13.07;;;;;;;;;;6205991;28;20030;-82
2023/07/04 01:18:32;;;;;;;25.67;12.60;;;;;;;;;;6222749;28;20029;-85
2023/07/04 01:21:34;;;;;;;18.30;11.10;;;;;;;;;;6218083;28;20582;-85
2023/07/04 01:24:36;;;;;;;;;;;;;;;;;;6217136;28;20030;-85
2023/07/04 01:27:39;;;;;;;23.75;13.05;;;;;;;;;;6219684;28;19944;-85
2023/07/04 01:30:41;;;;;;;27.23;13.07;;;;;;;;;;6227439;28;20029;-84
2023/07/04 01:33:41;;;;;;;25.85;12.52;;;;;;;;;;6200344;28;20033;-74
2023/07/04 01:36:42;;;;;;;19.77;11.53;;;;;;;;;;6202109;28;20022;-74
2023/07/04 01:39:42;;;;;;;20.60;11.40;;;;;;;;;;6208133;28;20022;-75
2023/07/04 01:42:42;;;;;;;23.00;11.07;;;;;;;;;;6203780;28;20010;-83
2023/07/04 01:45:45;;;;;;;20.63;11.17;;;;;;;;;;6205270;28;20137;-83
2023/07/04 01:48:47;;;;;;;20.40;10.20;;;;;;;;;;6204189;28;20014;-85
2023/07/04 01:51:47;;;;;;;21.80;12.43;;;;;;;;;;6215445;28;20030;-83
2023/07/04 01:54:48;;;;;;;26.67;13.23;;;;;;;;;;6200929;28;20480;-85
2023/07/04 01:57:49;;;;;;;24.23;12.50;;;;;;;;;;6204199;28;20076;-86
2023/07/04 02:00:49;;;;;;;24.47;13.83;;;;;;;;;;6198933;28;20050;-84
2023/07/04 02:03:49;;;;;;;21.13;10.83;;;;;;;;;;6198852;28;20029;-84
2023/07/04 02:06:49;;;;;;;30.23;12.17;;;;;;;;;;6222122;28;20049;-84
2023/07/04 02:09:50;;;;;;;24.55;12.15;;;;;;;;;;6231019;28;20014;-83
2023/07/04 02:12:50;;;;;;;23.05;12.60;;;;;;;;;;6234464;28;20022;-85
2023/07/04 02:15:51;;;;;;;24.48;12.82;;;;;;;;;;6226178;28;20087;-85
2023/07/04 02:18:51;;;;;;;23.20;11.77;;;;;;;;;;6214424;28;20028;-86
2023/07/04 02:21:51;;;;;;;20.42;11.63;;;;;;;;;;6241996;28;20018;-84
2023/07/04 02:24:51;;;;;;;19.73;12.60;;;;;;;;;;6244969;28;20029;-84
2023/07/04 02:27:51;;;;;;;22.77;11.37;;;;;;;;;;6221989;28;20029;-82
2023/07/04 02:30:55;;;;;;;24.40;12.30;;;;;;;;;;6230777;28;20013;-84
2023/07/04 02:33:55;;;;;;;20.30;12.70;;;;;;;;;;6229937;28;20083;-83
2023/07/04 02:36:56;;;;;;;23.10;13.47;;;;;;;;;;6234843;28;20543;-84
2023/07/04 02:39:56;;;;;;;24.42;14.20;;;;;;;;;;6237340;28;20049;-84
2023/07/04 02:42:58;;;;;;;21.03;12.60;;;;;;;;;;6222299;28;20018;-83
2023/07/04 02:45:58;;;;;;;24.23;14.00;;;;;;;;;;6226294;28;20022;-83
2023/07/04 02:48:59;;;;;;;18.48;10.88;;;;;;;;;;6236200;28;20021;-82
2023/07/04 02:51:59;;;;;;;22.03;12.83;;;;;;;;;;6237364;28;20141;-74
2023/07/04 02:54:59;;;;;;;22.63;10.70;;;;;;;;;;6229036;28;20415;-74
2023/07/04 02:58:00;;;;;;;23.73;12.20;;;;;;;;;;6207260;28;20024;-74
2023/07/04 03:01:01;;;;;;;21.33;12.02;;;;;;;;;;6242793;28;20021;-75
2023/07/04 03:04:02;;;;;;;;;;;;;;;;;;6234241;28;20028;-83
2023/07/04 03:07:03;;;;;;;21.48;11.35;;;;;;;;;;6230522;28;19921;-83
2023/07/04 03:10:03;;;;;;;20.92;11.73;;;;;;;;;;6224170;28;20166;-84
2023/07/04 03:13:03;;;;;;;27.40;13.27;;;;;;;;;;6216956;28;20041;-82
2023/07/04 03:16:04;;;;;;;21.83;11.67;;;;;;;;;;6234029;28;20037;-84
2023/07/04 03:19:04;;;;;;;20.33;12.03;;;;;;;;;;6227036;28;20026;-86
2023/07/04 03:22:04;;;;;;;25.17;12.95;;;;;;;;;;6239321;28;20472;-86
2023/07/04 03:25:04;;;;;;;19.20;11.67;;;;;;;;;;6208225;28;20060;-85
2023/07/04 03:28:05;;;;;;;25.33;12.27;;;;;;;;;;6229773;28;20392;-84
2023/07/04 03:31:05;;;;;;;20.60;11.73;;;;;;;;;;6226766;28;20025;-85
2023/07/04 03:34:05;;;;;;;23.60;12.67;;;;;;;;;;6236107;28;20021;-83
2023/07/04 03:37:05;;;;;;;25.67;13.33;;;;;;;;;;6238996;28;20511;-83
2023/07/04 03:40:07;;;;;;;23.83;13.45;;;;;;;;;;6234530;28;20034;-83
2023/07/04 03:43:08;;;;;;;25.63;13.27;;;;;;;;;;6229739;28;20052;-83
2023/07/04 03:46:08;;;;;;;26.20;12.63;;;;;;;;;;6220239;28;20025;-83
2023/07/04 03:49:08;;;;;;;18.37;11.73;;;;;;;;;;6245039;28;20464;-82
2023/07/04 03:52:08;;;;;;;25.10;14.27;;;;;;;;;;6233438;28;20038;-83
2023/07/04 03:55:08;;;;;;;22.80;12.43;;;;;;;;;;6229225;28;20029;-84
2023/07/04 03:58:09;;;;;;;22.90;12.43;;;;;;;;;;6221591;28;20522;-83
2023/07/04 04:01:09;;;;;;;23.20;12.70;;;;;;;;;;6211984;28;20025;-84
2023/07/04 04:04:09;;;;;;;19.43;11.60;;;;;;;;;;6231829;28;20025;-85
2023/07/04 04:07:10;;;;;;;25.85;12.77;;;;;;;;;;6223283;28;20045;-84
2023/07/04 04:10:10;;;;;;;21.37;12.33;;;;;;;;;;6241709;28;20014;-85
2023/07/04 04:13:10;;;;;;;26.20;13.47;;;;;;;;;;6231953;28;20025;-75
2023/07/04 04:16:12;;;;;;;22.93;12.13;;;;;;;;;;6223808;28;20076;-75
2023/07/04 04:19:12;;;;;;;25.17;13.05;;;;;;;;;;6220785;28;20029;-75
2023/07/04 04:22:13;;;;;;;20.93;11.20;;;;;;;;;;6224740;28;20065;-74
2023/07/04 04:25:14;;;;;;;24.10;13.30;;;;;;;;;;6223302;28;20022;-75
2023/07/04 04:28:14;;;;;;;20.55;13.45;;;;;;;;;;6237225;28;20261;-75
2023/07/04 04:31:15;;;;;;;28.33;14.63;;;;;;;;;;6215605;28;20652;-75
2023/07/04 04:34:20;;;;;;;23.90;12.93;;;;;;;;;;6217094;28;20072;-75
2023/07/04 04:37:23;;;;;;;23.40;12.98;;;;;;;;;;6231590;28;20034;-75
2023/07/04 04:40:23;;;;;;;22.83;13.50;;;;;;;;;;6228298;28;20029;-75
2023/07/04 04:43:24;;;;;;;23.13;13.73;;;;;;;;;;6226736;28;20440;-75
2023/07/04 04:46:24;;;;;;;19.83;12.82;;;;;;;;;;6226073;28;20025;-75
2023/07/04 04:49:24;;;;;;;26.77;15.37;;;;;;;;;;6213831;28;20075;-75
2023/07/04 04:52:24;;;;;;;26.25;13.52;;;;;;;;;;6241867;28;20108;-75
2023/07/04 04:55:25;;;;;;;27.85;16.90;;;;;;;;;;6229844;28;20036;-75
2023/07/04 04:58:25;;;;;;;31.40;16.97;;;;;;;;;;6232056;28;20033;-75
2023/07/04 05:01:25;;;;;;;30.27;17.02;;;;;;;;;;6232632;28;20103;-75
2023/07/04 05:04:26;;;;;;;25.83;16.33;;;;;;;;;;6224734;28;20407;-76
2023/07/04 05:07:26;;;;;;;26.57;15.70;;;;;;;;;;6227674;28;20030;-75
2023/07/04 05:10:27;;;;;;;29.20;14.47;;;;;;;;;;6222241;28;20501;-75
2023/07/04 05:13:27;;;;;;;26.75;14.52;;;;;;;;;;6235260;28;20017;-86
2023/07/04 05:16:27;;;;;;;23.87;15.07;;;;;;;;;;6241137;28;20032;-86
2023/07/04 05:19:29;;;;;;;24.80;14.00;;;;;;;;;;6238695;28;20125;-87
2023/07/04 05:22:29;;;;;;;28.10;14.43;;;;;;;;;;6230854;28;20140;-83
2023/07/04 05:25:29;;;;;;;24.73;14.73;;;;;;;;;;6219077;28;20018;-82
2023/07/04 05:28:30;;;;;;;25.73;15.20;;;;;;;;;;6220195;28;20116;-82
2023/07/04 05:31:30;;;;;;;22.37;14.23;;;;;;;;;;6229634;28;20036;-82
2023/07/04 05:34:31;;;;;;;24.73;13.60;;;;;;;;;;6222620;28;20025;-83
2023/07/04 05:37:31;;;;;;;28.20;15.27;;;;;;;;;;6219857;28;20029;-82
2023/07/04 05:40:31;;;;;;;25.53;13.50;;;;;;;;;;6209727;28;20033;-84
2023/07/04 05:43:31;;;;;;;22.73;12.85;;;;;;;;;;6231494;28;20029;-84
2023/07/04 05:46:32;;;;;;;25.63;14.87;;;;;;;;;;6225218;28;20110;-82
2023/07/04 05:49:32;;;;;;;24.27;13.37;;;;;;;;;;6237290;28;20016;-84
2023/07/04 05:52:32;;;;;;;24.93;13.93;;;;;;;;;;6219935;28;20020;-85
2023/07/04 05:55:32;;;;;;;21.90;12.73;;;;;;;;;;6213160;28;20032;-85
2023/07/04 05:58:33;;;;;;;21.45;12.38;;;;;;;;;;6230520;28;20511;-85
2023/07/04 06:01:35;;;;;;;24.70;15.05;;;;;;;;;;6223427;28;20028;-86
2023/07/04 06:04:35;;;;;;;22.77;13.32;;;;;;;;;;6212565;28;20476;-85
2023/07/04 06:07:36;;;;;;;27.63;12.82;;;;;;;;;;6203242;28;20080;-82
2023/07/04 06:10:36;;;;;;;24.23;12.60;;;;;;;;;;6233299;28;20451;-83
2023/07/04 06:13:37;;;;;;;29.73;12.13;;;;;;;;;;6235942;28;20017;-85
2023/07/04 06:16:37;;;;;;;23.00;10.83;;;;;;;;;;6221883;28;20033;-84
2023/07/04 06:19:37;;;;;;;17.93;11.23;;;;;;;;;;6229137;28;20021;-85
2023/07/04 06:22:37;;;;;;;22.87;11.03;;;;;;;;;;6225540;28;20022;-87
2023/07/04 06:25:39;;;;;;;18.93;11.67;;;;;;;;;;6231348;28;20024;-84
2023/07/04 06:28:40;;;;;;;22.38;11.55;;;;;;;;;;6236684;28;20471;-86
2023/07/04 06:31:42;;;;;;;21.02;9.88;;;;;;;;;;6225276;28;20030;-83
2023/07/04 06:34:42;;;;;;;20.15;10.90;;;;;;;;;;6226031;28;20013;-86
2023/07/04 06:37:43;;;;;;;18.10;10.07;;;;;;;;;;6234628;28;20033;-84
2023/07/04 06:40:53;;;;;;;17.10;9.18;;;;;;;;;;6237001;28;20190;-84
2023/07/04 06:43:53;;;;;;;22.88;11.52;;;;;;;;;;6220298;28;20028;-84
2023/07/04 06:46:53;;;;;;;27.67;12.80;;;;;;;;;;6226984;28;20136;-85
2023/07/04 06:49:53;;;;;;;19.20;11.37;;;;;;;;;;6239925;28;20549;-85
2023/07/04 06:52:54;;;;;;;16.57;9.20;;;;;;;;;;6225114;28;20809;-85
2023/07/04 06:56:03;;;;;;;25.73;11.73;;;;;;;;;;6232104;28;20037;-82
2023/07/04 06:59:03;;;;;;;17.10;9.82;;;;;;;;;;6226466;28;20751;-86
2023/07/04 07:02:04;;;;;;;19.50;9.50;;;;;;;;;;6221366;28;20034;-84
2023/07/04 07:05:06;;;;;;;20.80;10.63;;;;;;;;;;6232896;28;20754;-85
2023/07/04 07:08:06;;;;;;;21.38;10.18;;;;;;;;;;6230153;28;20069;-84
2023/07/04 07:11:09;;;;;;;23.87;11.97;;;;;;;;;;6228889;28;20109;-84
2023/07/04 07:14:09;;;;;;;18.83;10.13;;;;;;;;;;6238943;28;20033;-84
2023/07/04 07:17:09;;;;;;;18.17;10.43;;;;;;;;;;6228704;28;20097;-84
2023/07/04 07:20:09;;;;;;;;;;;;;;;;;;6243114;28;20488;-86
2023/07/04 07:23:10;;;;;;;18.48;8.77;;;;;;;;;;6230856;28;20311;-86
2023/07/04 07:26:11;;;;;;;19.10;8.82;;;;;;;;;;6227964;28;20025;-84
2023/07/04 07:29:11;;;;;;;;;;;;;;;;;;6211649;28;20765;-85
2023/07/04 07:32:11;;;;;;;14.88;7.75;;;;;;;;;;6223297;28;19918;-87
2023/07/04 07:35:12;;;;;;;;;;;;;;;;;;6233071;28;20488;-86
2023/07/04 07:38:12;;;;;;;16.08;7.07;;;;;;;;;;6210861;28;20504;-85
2023/07/04 07:41:12;;;;;;;;;;;;;;;;;;6234923;28;20063;-86
2023/07/04 07:44:13;;;;;;;14.88;7.93;;;;;;;;;;6231546;28;19915;-85
2023/07/04 07:47:13;;;;;;;15.13;7.95;;;;;;;;;;6224904;28;20366;-84
2023/07/04 07:50:14;;;;;;;13.20;7.45;;;;;;;;;;6229068;28;20093;-87
2023/07/04 07:53:14;;;;;;;16.43;7.67;;;;;;;;;;6211352;28;20808;-87
2023/07/04 07:56:16;;;;;;;13.98;6.13;;;;;;;;;;6234682;28;20112;-86
2023/07/04 07:59:17;;;;;;;14.15;6.50;;;;;;;;;;6233822;28;20018;-86
2023/07/04 08:02:17;;;;;;;13.43;6.68;;;;;;;;;;6230516;28;20076;-85
2023/07/04 08:05:17;;;;;;;20.70;7.20;;;;;;;;;;6233591;28;20037;-85
2023/07/04 08:08:19;;;;;;;8.60;5.33;;;;;;;;;;6233768;28;20025;-85
2023/07/04 08:11:19;;;;;;;11.63;4.93;;;;;;;;;;6210765;28;20022;-86
2023/07/04 08:14:20;;;;;;;10.50;4.22;;;;;;;;;;6244261;28;20025;-87
2023/07/04 08:17:21;;;;;;;16.23;5.70;;;;;;;;;;6224613;28;20522;-87
2023/07/04 08:20:21;;;;;;;11.05;4.13;;;;;;;;;;6235199;28;20037;-82
2023/07/04 08:23:22;;;;;;;;;;;;;;;;;;6239149;28;20017;-87
2023/07/04 08:26:23;;;;;;;9.43;4.50;;;;;;;;;;6231488;28;19913;-87
2023/07/04 08:29:24;;;;;;;11.23;4.47;;;;;;;;;;6222999;28;20026;-84
2023/07/04 08:32:24;;;;;;;8.40;4.47;;;;;;;;;;6229010;28;20021;-84
2023/07/04 08:35:25;;;;;;;14.00;5.17;;;;;;;;;;6230415;28;20538;-86
2023/07/04 08:38:26;;;;;;;11.77;5.25;;;;;;;;;;6245953;28;20029;-83
2023/07/04 08:41:45;;;;;;;9.40;5.07;;;;;;;;;;6216441;28;20037;-83
2023/07/04 08:44:46;;;;;;;12.50;4.05;;;;;;;;;;6229737;28;20175;-75
2023/07/04 08:47:47;;;;;;;9.27;3.05;;;;;;;;;;6229732;28;20505;-75
2023/07/04 08:50:47;;;;;;;9.10;3.87;;;;;;;;;;6227543;28;20018;-75
2023/07/04 08:53:51;;;;;;;10.00;3.70;;;;;;;;;;6226449;28;20045;-75
2023/07/04 08:56:52;;;;;;;10.00;4.13;;;;;;;;;;6239989;28;20742;-75
2023/07/04 08:59:55;;;;;;;10.05;4.00;;;;;;;;;;6225960;28;20022;-75
2023/07/04 09:02:55;;;;;;;8.00;3.45;;;;;;;;;;6228227;28;20009;-75
2023/07/04 09:05:59;;;;;;;8.30;3.37;;;;;;;;;;6223857;28;20060;-75
2023/07/04 09:09:02;;;;;;;9.98;3.55;;;;;;;;;;6232066;28;20109;-75
2023/07/04 09:12:03;;;;;;;5.30;2.75;;;;;;;;;;6226417;28;20025;-74
2023/07/04 09:15:22;;;;;;;8.38;3.40;;;;;;;;;;6220355;28;20021;-74
2023/07/04 09:18:37;;;;;;;11.70;4.43;;;;;;;;;;6225901;28;20060;-74
2023/07/04 09:21:38;;;;;;;8.25;4.07;;;;;;;;;;6227671;28;20022;-74
2023/07/04 09:24:38;;;;;;;9.90;4.90;;;;;;;;;;6224763;28;20029;-75
2023/07/04 09:27:38;;;;;;;12.40;4.27;;;;;;;;;;6234664;28;20491;-75
2023/07/04 09:30:39;;;;;;;9.00;3.63;;;;;;;;;;6241767;28;20071;-74
2023/07/04 09:33:39;;;;;;;8.70;3.63;;;;;;;;;;6225893;28;20026;-75
2023/07/04 09:36:39;;;;;;;9.27;3.87;;;;;;;;;;6228644;28;20086;-74
2023/07/04 09:39:47;;;;;;;13.10;3.67;;;;;;;;;;6224171;28;20264;-74
2023/07/04 09:42:47;;;;;;;10.65;4.70;;;;;;;;;;6220127;28;20028;-75
2023/07/04 09:45:47;;;;;;;8.30;3.93;;;;;;;;;;6222424;28;20018;-75
2023/07/04 09:48:48;;;;;;;12.30;4.93;;;;;;;;;;6216958;28;20021;-75
2023/07/04 09:52:01;;;;;;;9.80;5.40;;;;;;;;;;6218701;28;20514;-75
2023/07/04 09:55:07;;;;;;;9.70;4.65;;;;;;;;;;6223318;28;20105;-74
2023/07/04 09:58:15;;;;;;;12.55;5.50;;;;;;;;;;6227797;28;20021;-74
2023/07/04 10:01:16;;;;;;;13.10;5.43;;;;;;;;;;6227579;28;20018;-74
2023/07/04 10:04:24;;;;;;;12.00;6.03;;;;;;;;;;6231620;28;20033;-85
2023/07/04 10:07:25;;;;;;;13.45;5.50;;;;;;;;;;6232297;28;20050;-78
2023/07/04 10:10:26;;;;;;;9.38;4.63;;;;;;;;;;6233502;28;20014;-86
2023/07/04 10:13:38;;;;;;;11.27;6.07;;;;;;;;;;6227736;28;20025;-86
2023/07/04 10:16:50;;;;;;;10.38;5.13;;;;;;;;;;6246172;28;20049;-88
2023/07/04 10:19:51;;;;;;;11.57;5.53;;;;;;;;;;6238454;28;20095;-86
2023/07/04 10:22:54;;;;;;;;;;;;;;;;;;6221995;28;20128;-83
2023/07/04 10:25:55;;;;;;;10.65;5.75;;;;;;;;;;6241604;28;20458;-84
2023/07/04 10:28:55;;;;;;;;;;;;;;;;;;6229353;28;20022;-86
2023/07/04 10:31:57;;;;;;;14.60;8.17;;;;;;;;;;6243655;28;19909;-86
2023/07/04 10:34:58;;;;;;;13.73;8.65;;;;;;;;;;6234239;28;20018;-86
2023/07/04 10:38:17;;;;;;;14.90;7.90;;;;;;;;;;6241655;28;20025;-87
2023/07/04 10:41:20;;;;;;;14.68;8.00;;;;;;;;;;6239834;28;20030;-86
2023/07/04 10:44:25;;;;;;;12.18;7.85;;;;;;;;;;6237978;28;20029;-87
2023/07/04 10:47:30;;;;;;;13.80;7.30;;;;;;;;;;6251705;28;20028;-86
2023/07/04 10:50:35;;;;;;;10.38;6.05;;;;;;;;;;6243178;28;20029;-82
2023/07/04 10:53:37;;;;;;;11.85;5.38;;;;;;;;;;6233958;28;20051;-86
2023/07/04 10:56:40;;;;;;;14.82;6.57;;;;;;;;;;6246354;28;20037;-85
2023/07/04 10:59:44;;;;;;;13.63;7.30;;;;;;;;;;6242881;28;20029;-87
2023/07/04 11:02:48;;;;;;;10.90;6.03;;;;;;;;;;6240841;28;20029;-74
2023/07/04 11:05:50;;;;;;;11.43;6.30;;;;;;;;;;6225255;28;20046;-74
2023/07/04 11:08:51;;;;;;;12.27;6.93;;;;;;;;;;6231799;28;20104;-74
2023/07/04 11:11:52;;;;;;;11.90;7.38;;;;;;;;;;6227939;28;20022;-74
2023/07/04 11:15:04;;;;;;;13.48;6.38;;;;;;;;;;6215970;28;20091;-74
2023/07/04 11:18:05;;;;;;;11.77;5.95;;;;;;;;;;6224863;28;20397;-74
2023/07/04 11:21:08;;;;;;;15.98;6.65;;;;;;;;;;6233136;28;20031;-75
2023/07/04 11:24:11;;;;;;;10.18;4.93;;;;;;;;;;6228158;28;20365;-75
2023/07/04 11:27:24;;;;;;;8.45;4.75;;;;;;;;;;6233448;28;20395;-75
2023/07/04 11:30:32;;;;;;;12.25;6.57;;;;;;;;;;6231225;28;20013;-75
2023/07/04 11:33:43;;;;;;;9.55;6.53;;;;;;;;;;6228520;28;20025;-75
2023/07/04 11:36:52;;;;;;;8.95;4.75;;;;;;;;;;6222092;28;20030;-75
2023/07/04 11:39:54;;;;;;;9.00;5.00;;;;;;;;;;6226008;28;20104;-75
2023/07/04 11:42:58;;;;;;;9.75;5.28;;;;;;;;;;6227884;28;20048;-73
2023/07/04 11:46:00;;;;;;;9.55;4.72;;;;;;;;;;6233682;28;20018;-75
2023/07/04 11:49:00;;;;;;;8.85;4.50;;;;;;;;;;6234047;28;20033;-74
2023/07/04 11:52:00;;;;;;;;;;;;;;;;;;6209771;28;20026;-74
2023/07/04 11:55:04;;;;;;;9.15;4.45;;;;;;;;;;6227300;28;19979;-74
2023/07/04 11:58:07;;;;;;;7.03;4.00;;;;;;;;;;6230790;28;20029;-74
2023/07/04 12:01:08;;;;;;;8.18;3.92;;;;;;;;;;6229278;28;20152;-74
2023/07/04 12:04:08;;;;;;;;;;;;;;;;;;6231702;28;20029;-74
2023/07/04 12:07:26;;;;;;;10.18;4.43;;;;;;;;;;6213422;28;19979;-74
2023/07/04 12:10:28;;;;;;;7.18;4.13;;;;;;;;;;6212973;28;20035;-74
2023/07/04 12:13:32;;;;;;;7.07;3.65;;;;;;;;;;6224391;28;20093;-84
2023/07/04 12:16:33;;;;;;;3.38;2.15;;;;;;;;;;6247259;28;20018;-78
2023/07/04 12:19:33;;;;;;;;;;;;;;;;;;6254649;28;20037;-77
2023/07/04 12:22:33;;;;;;;6.55;3.17;;;;;;;;;;6269180;28;20376;-74
2023/07/04 12:25:34;;;;;;;;;;;;;;;;;;6231278;28;20049;-74
2023/07/04 12:28:36;;;;;;;6.60;3.22;;;;;;;;;;6240670;28;19920;-76
2023/07/04 12:31:36;;;;;;;5.78;2.80;;;;;;;;;;6228257;28;20038;-74
2023/07/04 12:34:36;;;;;;;;;;;;;;;;;;6207491;28;20118;-74
2023/07/04 12:37:39;;;;;;;3.97;2.55;;;;;;;;;;6231221;28;19913;-74
2023/07/04 12:40:40;;;;;;;5.10;2.55;;;;;;;;;;6224606;28;20083;-75
2023/07/04 12:43:40;;;;;;;4.07;2.17;;;;;;;;;;6237880;28;20022;-75
2023/07/04 12:46:41;;;;;;;5.73;2.63;;;;;;;;;;6238392;28;20377;-74
2023/07/04 12:49:42;;;;;;;4.85;2.40;;;;;;;;;;6238873;28;20373;-75
2023/07/04 12:52:44;;;;;;;3.20;2.35;;;;;;;;;;6230531;28;20044;-74
2023/07/04 12:55:44;;;;;;;7.45;2.55;;;;;;;;;;6227926;28;20041;-74
2023/07/04 12:58:45;;;;;;;5.75;2.65;;;;;;;;;;6231182;28;20589;-75
2023/07/04 13:01:45;;;;;;;2.75;1.98;;;;;;;;;;6233193;28;20044;-75
2023/07/04 13:04:46;;;;;;;5.83;1.93;;;;;;;;;;6233047;28;20041;-74
2023/07/04 13:07:48;;;;;;;5.10;2.47;;;;;;;;;;6229834;28;20017;-75
2023/07/04 13:10:50;;;;;;;4.43;1.92;;;;;;;;;;6229200;28;20045;-75
2023/07/04 13:13:51;;;;;;;4.53;1.65;;;;;;;;;;6218901;28;20465;-74
2023/07/04 13:17:05;;;;;;;1.92;1.45;;;;;;;;;;6228496;28;20029;-74
2023/07/04 13:20:09;;;;;;;6.32;2.47;;;;;;;;;;6205568;28;20032;-75
2023/07/04 13:23:36;;;;;;;3.78;1.60;;;;;;;;;;6231657;28;20030;-82
2023/07/04 13:26:37;;;;;;;4.47;1.83;;;;;;;;;;6253888;28;20032;-76
2023/07/04 13:51:46;;;;;;;2.77;1.70;;;;;;;;;;6803491;22;20045;-91
2023/07/04 13:54:47;;;;;;;7.93;2.22;;;;;;;;;;6286305;22;20084;-83
2023/07/04 13:57:47;;;;;;;4.07;1.80;;;;;;;;;;6287755;28;20049;-81
2023/07/04 14:00:47;;;;;;;2.75;2.17;;;;;;;;;;6290967;28;20009;-81
2023/07/04 14:03:48;;;;;;;3.78;2.17;;;;;;;;;;6273554;28;20067;-83
2023/07/04 14:06:51;;;;;;;4.20;2.00;;;;;;;;;;6308175;22;20052;-81
2023/07/04 14:09:51;;;;;;;7.65;2.65;;;;;;;;;;6282649;28;20014;-78
2023/07/04 14:12:52;;;;;;;3.27;2.07;;;;;;;;;;6282798;28;20039;-84
2023/07/04 14:15:52;;;;;;;3.20;2.13;;;;;;;;;;6271415;28;20037;-84
2023/07/04 14:18:53;;;;;;;3.88;2.10;;;;;;;;;;6273986;28;20074;-82
2023/07/04 14:21:53;;;;;;;5.57;2.43;;;;;;;;;;6277346;28;20021;-80
2023/07/04 14:24:53;;;;;;;5.03;2.17;;;;;;;;;;6265527;28;20037;-82
2023/07/04 14:27:53;;;;;;;5.93;2.20;;;;;;;;;;6267065;28;20051;-82
2023/07/04 14:30:56;;;;;;;5.83;2.30;;;;;;;;;;6280157;28;20045;-81
2023/07/04 14:33:57;;;;;;;6.00;2.45;;;;;;;;;;6252311;28;20463;-75
2023/07/04 14:36:58;;;;;;;4.05;2.15;;;;;;;;;;6243953;28;20087;-75
2023/07/04 14:39:58;;;;;;;4.00;2.27;;;;;;;;;;6253183;28;20033;-75
2023/07/04 14:42:58;;;;;;;5.57;1.77;;;;;;;;;;6239018;28;20330;-82
2023/07/04 14:46:00;;;;;;;3.40;2.10;;;;;;;;;;6245113;28;20346;-83
2023/07/04 14:49:00;;;;;;;6.20;2.50;;;;;;;;;;6251312;28;20738;-84
2023/07/04 14:52:00;;;;;;;3.25;2.47;;;;;;;;;;6274734;28;20086;-84
2023/07/04 14:55:00;;;;;;;5.38;2.13;;;;;;;;;;6273077;28;20483;-84
2023/07/04 14:58:01;;;;;;;4.93;2.13;;;;;;;;;;6269663;28;20037;-79
2023/07/04 15:01:03;;;;;;;4.28;2.03;;;;;;;;;;6272720;28;20026;-81
2023/07/04 15:04:04;;;;;;;3.55;2.15;;;;;;;;;;6264521;28;20049;-82
2023/07/04 15:07:04;;;;;;;8.67;1.77;;;;;;;;;;6239254;28;20101;-82
2023/07/04 15:10:05;;;;;;;6.18;2.17;;;;;;;;;;6248406;28;20017;-84
2023/07/04 15:13:05;;;;;;;4.57;2.50;;;;;;;;;;6228700;28;20053;-84
2023/07/04 15:16:06;;;;;;;3.47;2.13;;;;;;;;;;6233337;28;20036;-83
2023/07/04 15:19:06;;;;;;;4.45;2.33;;;;;;;;;;6234383;28;20025;-83
2023/07/04 15:22:06;;;;;;;4.73;2.00;;;;;;;;;;6241295;28;20049;-85
2023/07/04 15:25:07;;;;;;;6.72;2.35;;;;;;;;;;6230150;28;20312;-83
2023/07/04 15:28:07;;;;;;;3.75;2.42;;;;;;;;;;6244045;28;20028;-84
2023/07/04 15:31:08;;;;;;;5.65;2.60;;;;;;;;;;6241089;28;20041;-84
2023/07/04 15:34:10;;;;;;;5.25;2.17;;;;;;;;;;6245780;28;20061;-83
2023/07/04 15:37:14;;;;;;;4.07;2.50;;;;;;;;;;6226150;28;20032;-84
2023/07/04 15:40:15;;;;;;;3.15;2.17;;;;;;;;;;6231843;28;20030;-82
2023/07/04 15:43:15;;;;;;;4.68;2.70;;;;;;;;;;6231047;28;20080;-83
2023/07/04 15:46:16;;;;;;;4.55;2.92;;;;;;;;;;6235598;28;20029;-83
2023/07/04 15:49:16;;;;;;;5.78;2.70;;;;;;;;;;6232794;28;20025;-85
2023/07/04 15:52:17;;;;;;;5.00;2.15;;;;;;;;;;6237243;28;20061;-74
2023/07/04 15:55:17;;;;;;;8.70;2.97;;;;;;;;;;6213624;28;20029;-75
2023/07/04 15:58:18;;;;;;;3.97;2.43;;;;;;;;;;6232368;28;20029;-75
2023/07/04 16:01:19;;;;;;;3.78;1.95;;;;;;;;;;6234266;28;20272;-75
2023/07/04 16:04:19;;;;;;;6.85;2.55;;;;;;;;;;6233548;28;20028;-75
2023/07/04 16:07:19;;;;;;;;;;;;;;;;;;6230515;28;20049;-74
2023/07/04 16:10:20;;;;;;;8.32;3.33;;;;;;;;;;6228345;28;19909;-74
2023/07/04 16:13:20;;;;;;;;;;;;;;;;;;6222112;28;20037;-74
2023/07/04 16:16:21;;;;;;;4.85;2.53;;;;;;;;;;6244647;28;20696;-75
2023/07/04 16:19:22;;;;;;;;;;;;;;;;;;6226910;28;20439;-75
2023/07/04 16:22:22;;;;;;;4.93;2.63;;;;;;;;;;6230326;28;19905;-75
2023/07/04 16:25:22;;;;;;;;;;;;;;;;;;6226279;28;20053;-75
2023/07/04 16:28:22;;;;;;;6.88;2.88;;;;;;;;;;6227137;28;19912;-76
2023/07/04 16:31:23;;;;;;;5.68;2.70;;;;;;;;;;6232042;28;20022;-75
2023/07/04 16:34:23;;;;;;;5.40;2.47;;;;;;;;;;6229017;28;20025;-75
2023/07/04 16:37:23;;;;;;;2.87;2.03;;;;;;;;;;6221362;28;20261;-76
2023/07/04 16:40:23;;;;;;;4.37;2.10;;;;;;;;;;6204258;28;20373;-75
2023/07/04 16:43:24;;;;;;;4.07;2.17;;;;;;;;;;6244022;28;20021;-75
2023/07/04 16:46:24;;;;;;;4.50;3.00;;;;;;;;;;6224149;28;20048;-75
2023/07/04 16:49:25;;;;;;;6.40;2.67;;;;;;;;;;6232867;28;20048;-75
2023/07/04 16:52:25;;;;;;;5.47;2.30;;;;;;;;;;6221454;28;20496;-75
2023/07/04 16:55:26;;;;;;;5.65;2.80;;;;;;;;;;6223179;28;20879;-75
2023/07/04 16:58:28;;;;;;;5.57;2.58;;;;;;;;;;6203081;28;20124;-76
2023/07/04 17:01:28;;;;;;;4.95;3.08;;;;;;;;;;6232620;28;20026;-75
2023/07/04 17:04:28;;;;;;;4.00;2.20;;;;;;;;;;6227863;28;20052;-75
2023/07/04 17:07:28;;;;;;;5.13;2.27;;;;;;;;;;6231254;28;20045;-76
2023/07/04 17:10:28;;;;;;;6.20;2.83;;;;;;;;;;6226713;28;20089;-73
2023/07/04 17:13:29;;;;;;;7.27;3.27;;;;;;;;;;6230163;28;20603;-75
2023/07/04 17:16:29;;;;;;;5.40;2.13;;;;;;;;;;6229897;28;20030;-75
2023/07/04 17:19:29;;;;;;;6.97;2.73;;;;;;;;;;6228002;28;20095;-75
2023/07/04 17:22:29;;;;;;;4.80;2.43;;;;;;;;;;6232073;28;20272;-75
2023/07/04 17:25:29;;;;;;;5.33;2.87;;;;;;;;;;6231028;28;20465;-75
2023/07/04 17:28:33;;;;;;;5.40;2.87;;;;;;;;;;6218105;28;20061;-77
2023/07/04 17:31:34;;;;;;;6.57;2.72;;;;;;;;;;6228474;28;20242;-77
2023/07/04 17:34:34;;;;;;;3.90;3.00;;;;;;;;;;6231297;28;20033;-77
2023/07/04 17:37:34;;;;;;;9.77;2.97;;;;;;;;;;6229781;28;20773;-76
2023/07/04 17:40:35;;;;;;;5.23;2.73;;;;;;;;;;6230116;28;20018;-76
2023/07/04 17:43:35;;;;;;;6.00;3.38;;;;;;;;;;6232133;28;20026;-75
2023/07/04 17:46:35;;;;;;;;;;;;;;;;;;6229013;28;20036;-76
2023/07/04 17:49:35;;;;;;;10.55;4.97;;;;;;;;;;6206762;28;19924;-76
2023/07/04 17:52:35;;;;;;;;;;;;;;;;;;6230267;28;20022;-76
2023/07/04 17:55:35;;;;;;;8.73;4.18;;;;;;;;;;6230151;28;19955;-75
2023/07/04 17:58:36;;;;;;;7.18;3.60;;;;;;;;;;6236502;28;20037;-76
2023/07/04 18:01:37;;;;;;;12.02;3.80;;;;;;;;;;6225786;28;20030;-75
2023/07/04 18:04:38;;;;;;;11.35;3.72;;;;;;;;;;6225198;28;20032;-84
2023/07/04 18:07:39;;;;;;;9.82;3.72;;;;;;;;;;6215158;28;20440;-83
2023/07/04 18:10:39;;;;;;;9.33;3.73;;;;;;;;;;6225439;28;20114;-83
2023/07/04 18:13:40;;;;;;;12.68;4.13;;;;;;;;;;6213648;28;20022;-84
2023/07/04 18:16:42;;;;;;;11.60;3.63;;;;;;;;;;6244340;28;20121;-79
2023/07/04 18:19:43;;;;;;;13.85;4.25;;;;;;;;;;6260200;28;20037;-82
2023/07/04 18:22:43;;;;;;;9.55;4.18;;;;;;;;;;6258195;28;20044;-82